CRV1 LEXJ-LOWI
Flight info
| Callsign | CRV1 |
|---|---|
| Flight time | 2h 10m |
| Altitude | 30000 |
| Route | BLV M601 PPN N995 LATEK/N0464F380 DCT GONUP DCT TOU DCT GAI DCT MEN DCT NINUN DCT LATAM DCT ETREK DCT LTP DCT SOPLO DCT OMASI DCT KINNI DCT LAMUR DCT KORED DCT BERSU DCT DITON DCT DEGES DCT GAMSA N871 MADEB MADEB1B |
| Aircraft | A20N/M-SDE2E3FGHIJ1RWXY/LB1 |
Departure
| Time | 2026-05-06 13:04 |
|---|---|
| Airport | Seve Ballesteros-Santander Airport (LEXJ) |
Arrival
| Time | 2026-05-06 15:14 |
|---|---|
| Airport | Innsbruck Airport (LOWI) |
| Time | Latitude | Longitude | Altitude | Speed | Heading |
|---|---|---|---|---|---|
| 2026-05-06 12:56 | 43.42504 | -3.82417 | 13 ft | 0 kts | 290° |
| 2026-05-06 12:57 | 43.42505 | -3.82421 | 13 ft | 2 kts | 289° |
| 2026-05-06 12:57 | 43.42498 | -3.82432 | 13 ft | 1 kts | 193° |
| 2026-05-06 12:57 | 43.42486 | -3.82436 | 14 ft | 1 kts | 186° |
| 2026-05-06 12:57 | 43.42477 | -3.82433 | 14 ft | 1 kts | 158° |
| 2026-05-06 12:58 | 43.42462 | -3.82413 | 14 ft | 5 kts | 122° |
| 2026-05-06 12:58 | 43.42470 | -3.82348 | 14 ft | 10 kts | 29° |
| 2026-05-06 12:58 | 43.42553 | -3.82315 | 11 ft | 14 kts | 16° |
| 2026-05-06 12:58 | 43.42594 | -3.82211 | 11 ft | 14 kts | 109° |
| 2026-05-06 12:59 | 43.42559 | -3.82078 | 10 ft | 16 kts | 110° |
| 2026-05-06 12:59 | 43.42518 | -3.81928 | 10 ft | 17 kts | 110° |
| 2026-05-06 12:59 | 43.42476 | -3.81770 | 11 ft | 17 kts | 109° |
| 2026-05-06 12:59 | 43.42433 | -3.81616 | 13 ft | 16 kts | 107° |
| 2026-05-06 13:00 | 43.42396 | -3.81472 | 15 ft | 15 kts | 110° |
| 2026-05-06 13:00 | 43.42382 | -3.81365 | 16 ft | 9 kts | 66° |
| 2026-05-06 13:00 | 43.42392 | -3.81347 | 16 ft | 0 kts | 39° |
| 2026-05-06 13:00 | 43.42393 | -3.81346 | 16 ft | 0 kts | 39° |
| 2026-05-06 13:01 | 43.42406 | -3.81336 | 16 ft | 3 kts | 26° |
| 2026-05-06 13:01 | 43.42413 | -3.81331 | 16 ft | 0 kts | 20° |
| 2026-05-06 13:02 | 43.42414 | -3.81331 | 16 ft | 0 kts | 20° |
| 2026-05-06 13:02 | 43.42429 | -3.81323 | 15 ft | 4 kts | 20° |
| 2026-05-06 13:02 | 43.42467 | -3.81304 | 14 ft | 7 kts | 20° |
| 2026-05-06 13:02 | 43.42514 | -3.81292 | 14 ft | 6 kts | 320° |
| 2026-05-06 13:03 | 43.42522 | -3.81313 | 13 ft | 0 kts | 287° |
| 2026-05-06 13:03 | 43.42523 | -3.81316 | 13 ft | 1 kts | 287° |
| 2026-05-06 13:03 | 43.42556 | -3.81437 | 13 ft | 48 kts | 293° |
| 2026-05-06 13:03 | 43.42779 | -3.82270 | 10 ft | 132 kts | 290° |
| 2026-05-06 13:04 | 43.43152 | -3.83605 | 417 ft | 161 kts | 293° |
| 2026-05-06 13:04 | 43.43520 | -3.85031 | 1303 ft | 161 kts | 291° |
| 2026-05-06 13:04 | 43.43879 | -3.86432 | 2209 ft | 162 kts | 294° |
| 2026-05-06 13:04 | 43.44305 | -3.87929 | 2864 ft | 177 kts | 294° |
| 2026-05-06 13:05 | 43.44771 | -3.89568 | 3449 ft | 197 kts | 293° |
| 2026-05-06 13:05 | 43.45400 | -3.91315 | 4044 ft | 216 kts | 311° |
| 2026-05-06 13:05 | 43.46672 | -3.92510 | 4749 ft | 233 kts | 343° |
| 2026-05-06 13:05 | 43.48324 | -3.92607 | 5462 ft | 251 kts | 13° |
| 2026-05-06 13:06 | 43.49874 | -3.91475 | 6407 ft | 262 kts | 43° |
| 2026-05-06 13:06 | 43.50850 | -3.89419 | 7503 ft | 267 kts | 70° |
| 2026-05-06 13:06 | 43.51032 | -3.86907 | 8530 ft | 274 kts | 98° |
| 2026-05-06 13:06 | 43.50357 | -3.84460 | 9555 ft | 279 kts | 120° |
| 2026-05-06 13:07 | 43.49455 | -3.82145 | 10544 ft | 284 kts | 109° |
| 2026-05-06 13:07 | 43.49072 | -3.79506 | 11530 ft | 287 kts | 91° |
| 2026-05-06 13:07 | 43.49169 | -3.76761 | 12511 ft | 290 kts | 80° |
| 2026-05-06 13:07 | 43.49563 | -3.74044 | 13489 ft | 294 kts | 74° |
| 2026-05-06 13:08 | 43.50123 | -3.71334 | 14393 ft | 301 kts | 71° |
| 2026-05-06 13:08 | 43.50789 | -3.68541 | 14973 ft | 318 kts | 69° |
| 2026-05-06 13:08 | 43.51534 | -3.65603 | 15491 ft | 337 kts | 69° |
| 2026-05-06 13:08 | 43.52348 | -3.62461 | 15977 ft | 355 kts | 68° |
| 2026-05-06 13:09 | 43.53193 | -3.59209 | 16390 ft | 374 kts | 68° |
| 2026-05-06 13:09 | 43.54034 | -3.55721 | 16739 ft | 393 kts | 75° |
| 2026-05-06 13:09 | 43.54185 | -3.51882 | 17022 ft | 415 kts | 95° |
| 2026-05-06 13:09 | 43.53334 | -3.48052 | 17323 ft | 434 kts | 115° |
| 2026-05-06 13:10 | 43.51810 | -3.44393 | 17690 ft | 447 kts | 120° |
| 2026-05-06 13:10 | 43.50220 | -3.40745 | 18268 ft | 453 kts | 119° |
| 2026-05-06 13:10 | 43.48616 | -3.36996 | 18933 ft | 456 kts | 119° |
| 2026-05-06 13:10 | 43.47032 | -3.33196 | 19615 ft | 459 kts | 118° |
| 2026-05-06 13:11 | 43.45474 | -3.29368 | 20227 ft | 463 kts | 118° |
| 2026-05-06 13:11 | 43.43916 | -3.25520 | 20815 ft | 466 kts | 118° |
| 2026-05-06 13:11 | 43.42331 | -3.21611 | 21399 ft | 470 kts | 118° |
| 2026-05-06 13:11 | 43.40742 | -3.17707 | 21971 ft | 473 kts | 118° |
| 2026-05-06 13:12 | 43.39139 | -3.13781 | 22495 ft | 476 kts | 118° |
| 2026-05-06 13:12 | 43.37497 | -3.09769 | 23005 ft | 480 kts | 118° |
| 2026-05-06 13:12 | 43.35880 | -3.05822 | 23489 ft | 483 kts | 118° |
| 2026-05-06 13:12 | 43.34225 | -3.01792 | 24111 ft | 482 kts | 118° |
| 2026-05-06 13:13 | 43.32579 | -2.97788 | 24822 ft | 479 kts | 118° |
| 2026-05-06 13:13 | 43.30959 | -2.93856 | 25499 ft | 477 kts | 118° |
| 2026-05-06 13:13 | 43.29245 | -2.89977 | 26104 ft | 476 kts | 121° |
| 2026-05-06 13:13 | 43.27495 | -2.86165 | 26690 ft | 475 kts | 121° |
| 2026-05-06 13:14 | 43.25741 | -2.82362 | 27281 ft | 474 kts | 121° |
| 2026-05-06 13:14 | 43.23973 | -2.78537 | 27827 ft | 474 kts | 121° |
| 2026-05-06 13:14 | 43.22224 | -2.74758 | 28268 ft | 475 kts | 121° |
| 2026-05-06 13:14 | 43.20446 | -2.70918 | 28656 ft | 478 kts | 121° |
| 2026-05-06 13:15 | 43.18665 | -2.67076 | 28966 ft | 480 kts | 121° |
| 2026-05-06 13:15 | 43.15091 | -2.59375 | 28981 ft | 481 kts | 121° |
| 2026-05-06 13:16 | 43.11492 | -2.51647 | 28985 ft | 482 kts | 121° |
| 2026-05-06 13:16 | 43.07908 | -2.43970 | 28975 ft | 483 kts | 121° |
| 2026-05-06 13:17 | 43.04283 | -2.36224 | 28974 ft | 483 kts | 121° |
| 2026-05-06 13:17 | 43.00654 | -2.28492 | 28984 ft | 483 kts | 122° |
| 2026-05-06 13:18 | 42.97063 | -2.20841 | 28978 ft | 483 kts | 121° |
| 2026-05-06 13:18 | 42.93462 | -2.13084 | 28969 ft | 484 kts | 121° |
| 2026-05-06 13:19 | 42.89849 | -2.05321 | 28971 ft | 486 kts | 121° |
| 2026-05-06 13:19 | 42.86241 | -1.97599 | 28970 ft | 485 kts | 121° |
| 2026-05-06 13:20 | 42.82626 | -1.89881 | 28962 ft | 487 kts | 121° |
| 2026-05-06 13:20 | 42.78971 | -1.82087 | 28974 ft | 491 kts | 122° |
| 2026-05-06 13:21 | 42.75438 | -1.74121 | 29007 ft | 495 kts | 112° |
| 2026-05-06 13:21 | 42.74426 | -1.69660 | 29403 ft | 492 kts | 98° |
| 2026-05-06 13:21 | 42.74164 | -1.65130 | 29870 ft | 486 kts | 86° |
| 2026-05-06 13:21 | 42.74571 | -1.60585 | 29993 ft | 482 kts | 77° |
| 2026-05-06 13:22 | 42.75204 | -1.56120 | 29989 ft | 480 kts | 76° |
| 2026-05-06 13:22 | 42.76529 | -1.47220 | 29981 ft | 481 kts | 76° |
| 2026-05-06 13:23 | 42.77794 | -1.38343 | 29978 ft | 482 kts | 76° |
| 2026-05-06 13:23 | 42.79032 | -1.29377 | 29969 ft | 483 kts | 77° |
| 2026-05-06 13:24 | 42.80250 | -1.20422 | 29977 ft | 485 kts | 78° |
| 2026-05-06 13:24 | 42.81466 | -1.11403 | 29977 ft | 485 kts | 78° |
| 2026-05-06 13:25 | 42.82675 | -1.02385 | 29950 ft | 486 kts | 78° |
| 2026-05-06 13:25 | 42.83881 | -0.93314 | 29948 ft | 486 kts | 78° |
| 2026-05-06 13:26 | 42.85072 | -0.84311 | 29927 ft | 487 kts | 78° |
| 2026-05-06 13:26 | 42.86268 | -0.75224 | 29933 ft | 488 kts | 78° |
| 2026-05-06 13:27 | 42.87990 | -0.66319 | 30072 ft | 491 kts | 68° |
| 2026-05-06 13:27 | 42.89267 | -0.61996 | 30547 ft | 488 kts | 63° |
| 2026-05-06 13:27 | 42.90771 | -0.57911 | 31030 ft | 484 kts | 58° |
| 2026-05-06 13:27 | 42.92427 | -0.53921 | 31410 ft | 483 kts | 57° |
| 2026-05-06 13:28 | 42.94098 | -0.49996 | 31670 ft | 485 kts | 57° |
| 2026-05-06 13:28 | 42.95797 | -0.46019 | 31947 ft | 487 kts | 57° |
| 2026-05-06 13:28 | 42.97502 | -0.42010 | 32268 ft | 488 kts | 57° |
| 2026-05-06 13:28 | 42.99186 | -0.38028 | 32577 ft | 488 kts | 57° |
| 2026-05-06 13:29 | 43.00884 | -0.33998 | 32865 ft | 489 kts | 58° |
| 2026-05-06 13:29 | 43.02584 | -0.29955 | 33089 ft | 491 kts | 58° |
| 2026-05-06 13:29 | 43.04256 | -0.25962 | 33323 ft | 492 kts | 58° |
| 2026-05-06 13:29 | 43.05957 | -0.21892 | 33579 ft | 493 kts | 58° |
| 2026-05-06 13:30 | 43.07650 | -0.17835 | 33819 ft | 493 kts | 58° |
| 2026-05-06 13:30 | 43.09343 | -0.13772 | 34032 ft | 494 kts | 59° |
| 2026-05-06 13:30 | 43.11037 | -0.09702 | 34290 ft | 495 kts | 59° |
| 2026-05-06 13:30 | 43.12727 | -0.05636 | 34564 ft | 495 kts | 59° |
| 2026-05-06 13:31 | 43.14431 | -0.01528 | 34879 ft | 494 kts | 59° |
| 2026-05-06 13:31 | 43.16121 | 0.02550 | 35198 ft | 492 kts | 59° |
| 2026-05-06 13:31 | 43.17804 | 0.06618 | 35498 ft | 491 kts | 59° |
| 2026-05-06 13:31 | 43.19459 | 0.10624 | 35763 ft | 491 kts | 59° |
| 2026-05-06 13:32 | 43.21155 | 0.14735 | 35930 ft | 492 kts | 59° |
| 2026-05-06 13:32 | 43.24490 | 0.22839 | 35938 ft | 491 kts | 59° |
| 2026-05-06 13:33 | 43.27845 | 0.31010 | 35935 ft | 491 kts | 59° |
| 2026-05-06 13:33 | 43.31187 | 0.39169 | 35926 ft | 492 kts | 59° |
| 2026-05-06 13:34 | 43.34511 | 0.47314 | 35927 ft | 492 kts | 59° |
| 2026-05-06 13:34 | 43.37835 | 0.55482 | 35916 ft | 492 kts | 59° |
| 2026-05-06 13:35 | 43.41174 | 0.63714 | 35922 ft | 493 kts | 59° |
| 2026-05-06 13:35 | 43.44477 | 0.71885 | 35922 ft | 493 kts | 60° |
| 2026-05-06 13:36 | 43.47800 | 0.80112 | 35920 ft | 493 kts | 60° |
| 2026-05-06 13:36 | 43.51112 | 0.88331 | 35915 ft | 492 kts | 60° |
| 2026-05-06 13:37 | 43.54410 | 0.96550 | 35912 ft | 491 kts | 60° |
| 2026-05-06 13:37 | 43.57697 | 1.04773 | 35916 ft | 492 kts | 60° |
| 2026-05-06 13:38 | 43.60971 | 1.12994 | 35914 ft | 492 kts | 60° |
| 2026-05-06 13:38 | 43.64250 | 1.21255 | 35909 ft | 492 kts | 60° |
| 2026-05-06 13:39 | 43.67593 | 1.29496 | 35912 ft | 492 kts | 57° |
| 2026-05-06 13:39 | 43.71430 | 1.37268 | 35914 ft | 492 kts | 52° |
| 2026-05-06 13:40 | 43.75492 | 1.44832 | 35915 ft | 491 kts | 52° |
| 2026-05-06 13:40 | 43.79550 | 1.52404 | 35906 ft | 491 kts | 52° |
| 2026-05-06 13:41 | 43.83569 | 1.59959 | 35910 ft | 490 kts | 52° |
| 2026-05-06 13:41 | 43.87607 | 1.67583 | 35908 ft | 491 kts | 53° |
| 2026-05-06 13:42 | 43.91638 | 1.75218 | 35905 ft | 491 kts | 53° |
| 2026-05-06 13:42 | 43.95649 | 1.82838 | 35894 ft | 490 kts | 53° |
| 2026-05-06 13:43 | 43.99533 | 1.90532 | 35888 ft | 491 kts | 54° |
| 2026-05-06 13:43 | 44.03404 | 1.98338 | 35891 ft | 491 kts | 54° |
| 2026-05-06 13:44 | 44.07268 | 2.06137 | 35891 ft | 491 kts | 54° |
| 2026-05-06 13:44 | 44.11139 | 2.13954 | 35890 ft | 491 kts | 54° |
| 2026-05-06 13:45 | 44.14985 | 2.21737 | 35891 ft | 491 kts | 54° |
| 2026-05-06 13:45 | 44.20753 | 2.33448 | 35889 ft | 491 kts | 54° |
| 2026-05-06 13:46 | 44.24598 | 2.41281 | 35890 ft | 491 kts | 54° |
| 2026-05-06 13:46 | 44.28461 | 2.49172 | 35896 ft | 492 kts | 54° |
| 2026-05-06 13:47 | 44.32285 | 2.57007 | 35902 ft | 492 kts | 54° |
| 2026-05-06 13:47 | 44.36120 | 2.64884 | 35906 ft | 492 kts | 55° |
| 2026-05-06 13:48 | 44.39952 | 2.72776 | 35902 ft | 492 kts | 55° |
| 2026-05-06 13:48 | 44.43803 | 2.80729 | 35891 ft | 492 kts | 56° |
| 2026-05-06 13:49 | 44.47620 | 2.88637 | 35891 ft | 492 kts | 56° |
| 2026-05-06 13:49 | 44.51403 | 2.96496 | 35886 ft | 491 kts | 56° |
| 2026-05-06 13:50 | 44.55232 | 3.04478 | 35881 ft | 492 kts | 56° |
| 2026-05-06 13:50 | 44.59037 | 3.12434 | 35878 ft | 493 kts | 56° |
| 2026-05-06 13:51 | 44.62629 | 3.20560 | 35877 ft | 492 kts | 60° |
| 2026-05-06 13:51 | 44.65989 | 3.28933 | 35869 ft | 493 kts | 60° |
| 2026-05-06 13:52 | 44.69308 | 3.37274 | 35865 ft | 492 kts | 60° |
| 2026-05-06 13:52 | 44.72660 | 3.45689 | 35862 ft | 493 kts | 60° |
| 2026-05-06 13:53 | 44.75987 | 3.54059 | 35852 ft | 493 kts | 60° |
| 2026-05-06 13:53 | 44.79328 | 3.62462 | 35862 ft | 492 kts | 60° |
| 2026-05-06 13:54 | 44.82653 | 3.70849 | 35864 ft | 494 kts | 61° |
| 2026-05-06 13:54 | 44.85984 | 3.79294 | 35862 ft | 493 kts | 62° |
| 2026-05-06 13:55 | 44.89288 | 3.87693 | 35866 ft | 493 kts | 62° |
| 2026-05-06 13:55 | 44.92597 | 3.96134 | 35867 ft | 492 kts | 62° |
| 2026-05-06 13:56 | 44.95892 | 4.04573 | 35870 ft | 493 kts | 62° |
| 2026-05-06 13:56 | 44.99191 | 4.13051 | 35870 ft | 494 kts | 62° |
| 2026-05-06 13:57 | 45.02484 | 4.21537 | 35870 ft | 494 kts | 62° |
| 2026-05-06 13:57 | 45.05785 | 4.30049 | 35865 ft | 494 kts | 62° |
| 2026-05-06 13:58 | 45.09060 | 4.38516 | 35870 ft | 494 kts | 62° |
| 2026-05-06 13:58 | 45.12339 | 4.47039 | 35870 ft | 494 kts | 62° |
| 2026-05-06 13:59 | 45.15609 | 4.55569 | 35868 ft | 494 kts | 62° |
| 2026-05-06 13:59 | 45.18868 | 4.64096 | 35867 ft | 493 kts | 62° |
| 2026-05-06 14:00 | 45.22118 | 4.72596 | 35864 ft | 493 kts | 63° |
| 2026-05-06 14:00 | 45.25378 | 4.81158 | 35868 ft | 493 kts | 63° |
| 2026-05-06 14:01 | 45.28608 | 4.89679 | 35867 ft | 494 kts | 63° |
| 2026-05-06 14:01 | 45.31844 | 4.98251 | 35868 ft | 494 kts | 63° |
| 2026-05-06 14:02 | 45.35068 | 5.06815 | 35879 ft | 493 kts | 63° |
| 2026-05-06 14:02 | 45.38270 | 5.15346 | 35886 ft | 493 kts | 63° |
| 2026-05-06 14:03 | 45.41500 | 5.23989 | 35893 ft | 494 kts | 63° |
| 2026-05-06 14:03 | 45.44726 | 5.32585 | 35894 ft | 495 kts | 62° |
| 2026-05-06 14:04 | 45.48389 | 5.40790 | 35887 ft | 495 kts | 54° |
| 2026-05-06 14:04 | 45.52762 | 5.48419 | 35883 ft | 496 kts | 47° |
| 2026-05-06 14:05 | 45.57703 | 5.55248 | 35876 ft | 497 kts | 41° |
| 2026-05-06 14:05 | 45.62833 | 5.61726 | 35875 ft | 496 kts | 41° |
| 2026-05-06 14:06 | 45.68007 | 5.68294 | 35871 ft | 497 kts | 42° |
| 2026-05-06 14:06 | 45.73115 | 5.74844 | 35874 ft | 496 kts | 42° |
| 2026-05-06 14:07 | 45.75675 | 5.78127 | 35623 ft | 496 kts | 42° |
| 2026-05-06 14:07 | 45.78244 | 5.81422 | 35706 ft | 498 kts | 42° |
| 2026-05-06 14:07 | 45.83369 | 5.88020 | 35859 ft | 498 kts | 42° |
| 2026-05-06 14:08 | 45.88507 | 5.94658 | 35884 ft | 497 kts | 42° |
| 2026-05-06 14:08 | 45.93652 | 6.01316 | 35892 ft | 497 kts | 42° |
| 2026-05-06 14:09 | 45.98780 | 6.07963 | 35903 ft | 497 kts | 42° |
| 2026-05-06 14:09 | 46.03861 | 6.14577 | 35882 ft | 497 kts | 42° |
| 2026-05-06 14:10 | 46.08736 | 6.21600 | 35882 ft | 497 kts | 49° |
| 2026-05-06 14:10 | 46.13017 | 6.29411 | 35897 ft | 496 kts | 56° |
| 2026-05-06 14:11 | 46.16959 | 6.37529 | 35894 ft | 496 kts | 56° |
| 2026-05-06 14:11 | 46.20888 | 6.45674 | 35894 ft | 497 kts | 56° |
| 2026-05-06 14:12 | 46.24836 | 6.53833 | 35887 ft | 498 kts | 56° |
| 2026-05-06 14:12 | 46.28805 | 6.62041 | 35898 ft | 498 kts | 56° |
| 2026-05-06 14:13 | 46.32756 | 6.70234 | 35901 ft | 498 kts | 57° |
| 2026-05-06 14:13 | 46.36683 | 6.78397 | 35892 ft | 498 kts | 57° |
| 2026-05-06 14:14 | 46.40634 | 6.86636 | 35898 ft | 499 kts | 57° |
| 2026-05-06 14:14 | 46.44567 | 6.94868 | 35893 ft | 498 kts | 57° |
| 2026-05-06 14:15 | 46.48492 | 7.03109 | 35882 ft | 499 kts | 57° |
| 2026-05-06 14:15 | 46.52420 | 7.11364 | 35866 ft | 499 kts | 56° |
| 2026-05-06 14:16 | 46.56908 | 7.19040 | 35879 ft | 502 kts | 45° |
| 2026-05-06 14:16 | 46.62323 | 7.25455 | 35865 ft | 505 kts | 33° |
| 2026-05-06 14:17 | 46.68456 | 7.30365 | 35867 ft | 504 kts | 24° |
| 2026-05-06 14:17 | 46.74823 | 7.34517 | 35870 ft | 505 kts | 23° |
| 2026-05-06 14:18 | 46.81005 | 7.39261 | 35869 ft | 505 kts | 32° |
| 2026-05-06 14:18 | 46.86604 | 7.45449 | 35866 ft | 505 kts | 43° |
| 2026-05-06 14:19 | 46.91427 | 7.52871 | 35871 ft | 503 kts | 52° |
| 2026-05-06 14:19 | 46.95727 | 7.60860 | 35875 ft | 504 kts | 53° |
| 2026-05-06 14:20 | 47.00032 | 7.68933 | 35881 ft | 504 kts | 54° |
| 2026-05-06 14:20 | 47.02203 | 7.72978 | 36152 ft | 505 kts | 53° |
| 2026-05-06 14:20 | 47.04364 | 7.76990 | 36028 ft | 503 kts | 53° |
| 2026-05-06 14:21 | 47.08672 | 7.85000 | 35918 ft | 503 kts | 53° |
| 2026-05-06 14:21 | 47.12955 | 7.93065 | 35896 ft | 503 kts | 56° |
| 2026-05-06 14:22 | 47.16814 | 8.01587 | 35891 ft | 502 kts | 60° |
| 2026-05-06 14:22 | 47.20488 | 8.10291 | 35885 ft | 503 kts | 60° |
| 2026-05-06 14:23 | 47.24171 | 8.19004 | 35881 ft | 503 kts | 60° |
| 2026-05-06 14:23 | 47.27606 | 8.27914 | 35883 ft | 501 kts | 66° |
| 2026-05-06 14:24 | 47.30248 | 8.37278 | 35879 ft | 498 kts | 75° |
| 2026-05-06 14:24 | 47.32060 | 8.47071 | 35872 ft | 494 kts | 82° |
| 2026-05-06 14:25 | 47.33320 | 8.56908 | 35873 ft | 492 kts | 83° |
| 2026-05-06 14:25 | 47.34563 | 8.66862 | 35869 ft | 494 kts | 84° |
| 2026-05-06 14:26 | 47.35189 | 8.71805 | 35695 ft | 493 kts | 84° |
| 2026-05-06 14:26 | 47.35821 | 8.76765 | 35495 ft | 491 kts | 84° |
| 2026-05-06 14:26 | 47.36445 | 8.81680 | 35295 ft | 491 kts | 84° |
| 2026-05-06 14:26 | 47.37071 | 8.86613 | 34946 ft | 489 kts | 84° |
| 2026-05-06 14:27 | 47.37693 | 8.91527 | 34787 ft | 486 kts | 85° |
| 2026-05-06 14:27 | 47.38300 | 8.96355 | 34643 ft | 486 kts | 85° |
| 2026-05-06 14:27 | 47.38910 | 9.01252 | 34479 ft | 488 kts | 85° |
| 2026-05-06 14:27 | 47.39521 | 9.06161 | 34275 ft | 489 kts | 85° |
| 2026-05-06 14:28 | 47.40132 | 9.11095 | 34041 ft | 490 kts | 85° |
| 2026-05-06 14:28 | 47.40689 | 9.16007 | 33803 ft | 488 kts | 88° |
| 2026-05-06 14:28 | 47.41063 | 9.20973 | 33565 ft | 485 kts | 91° |
| 2026-05-06 14:28 | 47.41228 | 9.25935 | 33326 ft | 482 kts | 95° |
| 2026-05-06 14:29 | 47.41218 | 9.30801 | 33097 ft | 480 kts | 97° |
| 2026-05-06 14:29 | 47.41163 | 9.35739 | 32862 ft | 481 kts | 97° |
| 2026-05-06 14:29 | 47.41102 | 9.40658 | 32621 ft | 482 kts | 97° |
| 2026-05-06 14:29 | 47.41047 | 9.45575 | 32364 ft | 483 kts | 97° |
| 2026-05-06 14:30 | 47.40994 | 9.50552 | 31810 ft | 484 kts | 97° |
| 2026-05-06 14:30 | 47.40945 | 9.55513 | 31001 ft | 486 kts | 96° |
| 2026-05-06 14:30 | 47.40866 | 9.60425 | 30074 ft | 486 kts | 98° |
| 2026-05-06 14:30 | 47.40622 | 9.65328 | 29458 ft | 474 kts | 102° |
| 2026-05-06 14:31 | 47.40208 | 9.70054 | 29147 ft | 457 kts | 105° |
| 2026-05-06 14:31 | 47.39664 | 9.74570 | 28894 ft | 441 kts | 107° |
| 2026-05-06 14:31 | 47.39093 | 9.78942 | 28654 ft | 427 kts | 107° |
| 2026-05-06 14:31 | 47.38540 | 9.83134 | 28426 ft | 414 kts | 108° |
| 2026-05-06 14:32 | 47.37992 | 9.87275 | 28192 ft | 402 kts | 108° |
| 2026-05-06 14:32 | 47.37463 | 9.91273 | 27836 ft | 395 kts | 108° |
| 2026-05-06 14:32 | 47.36939 | 9.95203 | 27345 ft | 391 kts | 107° |
| 2026-05-06 14:32 | 47.36420 | 9.99091 | 26856 ft | 387 kts | 107° |
| 2026-05-06 14:33 | 47.35910 | 10.02931 | 26535 ft | 379 kts | 107° |
| 2026-05-06 14:33 | 47.35413 | 10.06688 | 26261 ft | 370 kts | 107° |
| 2026-05-06 14:33 | 47.34929 | 10.10346 | 25987 ft | 361 kts | 107° |
| 2026-05-06 14:33 | 47.34450 | 10.13939 | 25716 ft | 353 kts | 107° |
| 2026-05-06 14:34 | 47.33979 | 10.17468 | 25444 ft | 346 kts | 107° |
| 2026-05-06 14:34 | 47.33522 | 10.20860 | 25233 ft | 337 kts | 107° |
| 2026-05-06 14:34 | 47.33072 | 10.24200 | 24873 ft | 333 kts | 107° |
| 2026-05-06 14:34 | 47.32620 | 10.27553 | 24431 ft | 331 kts | 107° |
| 2026-05-06 14:35 | 47.32173 | 10.30843 | 24012 ft | 329 kts | 107° |
| 2026-05-06 14:35 | 47.31727 | 10.34108 | 23610 ft | 327 kts | 106° |
| 2026-05-06 14:35 | 47.31282 | 10.37372 | 23219 ft | 324 kts | 107° |
| 2026-05-06 14:35 | 47.31025 | 10.39253 | 22994 ft | 323 kts | 107° |
| 2026-05-06 14:36 | 47.30678 | 10.41783 | 22678 ft | 322 kts | 107° |
| 2026-05-06 14:36 | 47.30236 | 10.44988 | 22309 ft | 319 kts | 107° |
| 2026-05-06 14:36 | 47.29794 | 10.48199 | 21927 ft | 317 kts | 107° |
| 2026-05-06 14:36 | 47.29365 | 10.51323 | 21537 ft | 315 kts | 106° |
| 2026-05-06 14:37 | 47.29035 | 10.54541 | 21144 ft | 316 kts | 101° |
| 2026-05-06 14:37 | 47.28917 | 10.57773 | 20764 ft | 317 kts | 95° |
| 2026-05-06 14:37 | 47.29019 | 10.61006 | 20357 ft | 318 kts | 89° |
| 2026-05-06 14:37 | 47.29319 | 10.64198 | 19971 ft | 318 kts | 85° |
| 2026-05-06 14:38 | 47.29683 | 10.67389 | 19588 ft | 316 kts | 85° |
| 2026-05-06 14:38 | 47.30050 | 10.70551 | 19227 ft | 313 kts | 85° |
| 2026-05-06 14:38 | 47.30410 | 10.73681 | 18856 ft | 311 kts | 86° |
| 2026-05-06 14:38 | 47.30761 | 10.76781 | 18481 ft | 308 kts | 86° |
| 2026-05-06 14:39 | 47.31110 | 10.79896 | 18141 ft | 306 kts | 86° |
| 2026-05-06 14:39 | 47.31451 | 10.82961 | 17793 ft | 304 kts | 86° |
| 2026-05-06 14:39 | 47.31784 | 10.85982 | 17439 ft | 302 kts | 86° |
| 2026-05-06 14:39 | 47.32116 | 10.89009 | 17082 ft | 299 kts | 85° |
| 2026-05-06 14:40 | 47.32446 | 10.92034 | 16739 ft | 297 kts | 85° |
| 2026-05-06 14:40 | 47.32774 | 10.95035 | 16394 ft | 296 kts | 85° |
| 2026-05-06 14:40 | 47.33096 | 10.98015 | 16042 ft | 294 kts | 84° |
| 2026-05-06 14:40 | 47.33412 | 11.00930 | 15703 ft | 291 kts | 84° |
| 2026-05-06 14:41 | 47.33730 | 11.03856 | 15339 ft | 289 kts | 84° |
| 2026-05-06 14:41 | 47.34046 | 11.06778 | 14983 ft | 287 kts | 84° |
| 2026-05-06 14:41 | 47.34361 | 11.09682 | 14614 ft | 286 kts | 84° |
| 2026-05-06 14:41 | 47.34668 | 11.12542 | 14247 ft | 285 kts | 84° |
| 2026-05-06 14:42 | 47.34973 | 11.15402 | 13895 ft | 282 kts | 83° |
| 2026-05-06 14:42 | 47.35278 | 11.18240 | 13550 ft | 280 kts | 83° |
| 2026-05-06 14:42 | 47.35584 | 11.21087 | 13202 ft | 278 kts | 83° |
| 2026-05-06 14:42 | 47.35881 | 11.23860 | 12889 ft | 275 kts | 83° |
| 2026-05-06 14:43 | 47.36173 | 11.26594 | 12824 ft | 264 kts | 83° |
| 2026-05-06 14:43 | 47.36452 | 11.29197 | 12818 ft | 248 kts | 83° |
| 2026-05-06 14:43 | 47.36713 | 11.31658 | 12817 ft | 240 kts | 84° |
| 2026-05-06 14:43 | 47.36968 | 11.34076 | 12827 ft | 241 kts | 83° |
| 2026-05-06 14:44 | 47.37223 | 11.36511 | 12840 ft | 240 kts | 84° |
| 2026-05-06 14:44 | 47.37476 | 11.38920 | 12841 ft | 241 kts | 84° |
| 2026-05-06 14:44 | 47.37734 | 11.41384 | 12849 ft | 241 kts | 84° |
| 2026-05-06 14:45 | 47.38241 | 11.46236 | 12857 ft | 241 kts | 84° |
| 2026-05-06 14:45 | 47.38497 | 11.48704 | 12867 ft | 241 kts | 84° |
| 2026-05-06 14:45 | 47.38748 | 11.51107 | 12862 ft | 240 kts | 84° |
| 2026-05-06 14:45 | 47.39003 | 11.53552 | 12851 ft | 241 kts | 84° |
| 2026-05-06 14:46 | 47.39256 | 11.55999 | 12831 ft | 241 kts | 84° |
| 2026-05-06 14:46 | 47.39507 | 11.58447 | 12864 ft | 241 kts | 84° |
| 2026-05-06 14:46 | 47.39761 | 11.60897 | 12876 ft | 241 kts | 84° |
| 2026-05-06 14:46 | 47.40008 | 11.63304 | 12863 ft | 241 kts | 84° |
| 2026-05-06 14:47 | 47.40263 | 11.65779 | 12858 ft | 241 kts | 85° |
| 2026-05-06 14:47 | 47.40514 | 11.68217 | 12851 ft | 242 kts | 85° |
| 2026-05-06 14:47 | 47.40763 | 11.70654 | 12857 ft | 242 kts | 85° |
| 2026-05-06 14:47 | 47.41015 | 11.73126 | 12857 ft | 242 kts | 85° |
| 2026-05-06 14:48 | 47.41264 | 11.75566 | 12853 ft | 242 kts | 85° |
| 2026-05-06 14:48 | 47.41509 | 11.77989 | 12841 ft | 242 kts | 85° |
| 2026-05-06 14:48 | 47.41761 | 11.80468 | 12842 ft | 242 kts | 86° |
| 2026-05-06 14:48 | 47.42008 | 11.82919 | 12849 ft | 242 kts | 85° |
| 2026-05-06 14:49 | 47.42252 | 11.85351 | 12841 ft | 242 kts | 85° |
| 2026-05-06 14:49 | 47.42500 | 11.87816 | 12835 ft | 241 kts | 86° |
| 2026-05-06 14:49 | 47.42748 | 11.90270 | 12845 ft | 242 kts | 85° |
| 2026-05-06 14:49 | 47.42993 | 11.92722 | 12842 ft | 242 kts | 85° |
| 2026-05-06 14:50 | 47.43273 | 11.95166 | 12832 ft | 244 kts | 76° |
| 2026-05-06 14:50 | 47.44097 | 11.97360 | 12822 ft | 250 kts | 51° |
| 2026-05-06 14:50 | 47.45297 | 11.99216 | 12818 ft | 251 kts | 45° |
| 2026-05-06 14:50 | 47.46551 | 12.00997 | 12804 ft | 251 kts | 40° |
| 2026-05-06 14:51 | 47.48105 | 12.02133 | 12790 ft | 249 kts | 3° |
| 2026-05-06 14:51 | 47.49756 | 12.01738 | 12793 ft | 240 kts | 326° |
| 2026-05-06 14:51 | 47.50932 | 12.00141 | 12789 ft | 229 kts | 294° |
| 2026-05-06 14:51 | 47.51351 | 11.97961 | 12803 ft | 218 kts | 263° |
| 2026-05-06 14:52 | 47.50977 | 11.95842 | 12818 ft | 211 kts | 236° |
| 2026-05-06 14:52 | 47.49979 | 11.94320 | 12816 ft | 209 kts | 210° |
| 2026-05-06 14:52 | 47.48595 | 11.93699 | 12826 ft | 213 kts | 183° |
| 2026-05-06 14:52 | 47.47143 | 11.94169 | 12837 ft | 218 kts | 160° |
| 2026-05-06 14:53 | 47.45745 | 11.95001 | 12845 ft | 215 kts | 171° |
| 2026-05-06 14:53 | 47.44292 | 11.94994 | 12853 ft | 211 kts | 199° |
| 2026-05-06 14:53 | 47.43076 | 11.93864 | 12861 ft | 211 kts | 229° |
| 2026-05-06 14:53 | 47.42440 | 11.91929 | 12861 ft | 218 kts | 258° |
| 2026-05-06 14:54 | 47.42597 | 11.89690 | 12859 ft | 228 kts | 289° |
| 2026-05-06 14:54 | 47.43596 | 11.87832 | 12856 ft | 239 kts | 323° |
| 2026-05-06 14:54 | 47.45183 | 11.87065 | 12848 ft | 248 kts | 359° |
| 2026-05-06 14:54 | 47.46830 | 11.87777 | 12828 ft | 250 kts | 37° |
| 2026-05-06 14:55 | 47.48042 | 11.89570 | 12827 ft | 249 kts | 52° |
| 2026-05-06 14:55 | 47.49137 | 11.91542 | 12809 ft | 249 kts | 52° |
| 2026-05-06 14:55 | 47.50247 | 11.93523 | 12813 ft | 250 kts | 51° |
| 2026-05-06 14:55 | 47.51373 | 11.95474 | 12803 ft | 251 kts | 52° |
| 2026-05-06 14:56 | 47.52246 | 11.97645 | 12779 ft | 245 kts | 82° |
| 2026-05-06 14:56 | 47.52125 | 12.00046 | 12798 ft | 233 kts | 120° |
| 2026-05-06 14:56 | 47.51134 | 12.01845 | 12809 ft | 221 kts | 152° |
| 2026-05-06 14:56 | 47.49731 | 12.02590 | 12809 ft | 213 kts | 180° |
| 2026-05-06 14:57 | 47.48317 | 12.02218 | 12819 ft | 210 kts | 206° |
| 2026-05-06 14:57 | 47.47196 | 12.00938 | 12832 ft | 211 kts | 226° |
| 2026-05-06 14:57 | 47.46455 | 11.99701 | 12840 ft | 211 kts | 227° |
| 2026-05-06 14:57 | 47.45488 | 11.98070 | 12725 ft | 208 kts | 227° |
| 2026-05-06 14:58 | 47.44535 | 11.96471 | 12416 ft | 209 kts | 227° |
| 2026-05-06 14:58 | 47.43569 | 11.94857 | 12126 ft | 209 kts | 226° |
| 2026-05-06 14:58 | 47.42596 | 11.93282 | 11851 ft | 209 kts | 223° |
| 2026-05-06 14:58 | 47.41782 | 11.92177 | 11636 ft | 208 kts | 218° |
| 2026-05-06 14:59 | 47.40921 | 11.91195 | 11422 ft | 208 kts | 213° |
| 2026-05-06 14:59 | 47.39703 | 11.90075 | 11171 ft | 206 kts | 208° |
| 2026-05-06 14:59 | 47.38404 | 11.89161 | 10876 ft | 206 kts | 201° |
| 2026-05-06 14:59 | 47.37075 | 11.88403 | 10599 ft | 205 kts | 202° |
| 2026-05-06 15:00 | 47.35832 | 11.87553 | 10500 ft | 192 kts | 207° |
| 2026-05-06 15:00 | 47.34671 | 11.86510 | 10055 ft | 197 kts | 217° |
| 2026-05-06 15:00 | 47.33757 | 11.85033 | 9706 ft | 198 kts | 233° |
| 2026-05-06 15:00 | 47.33131 | 11.83259 | 9575 ft | 187 kts | 245° |
| 2026-05-06 15:01 | 47.32751 | 11.81509 | 9498 ft | 180 kts | 253° |
| 2026-05-06 15:01 | 47.32509 | 11.79673 | 9236 ft | 181 kts | 257° |
| 2026-05-06 15:01 | 47.32300 | 11.77867 | 8941 ft | 180 kts | 257° |
| 2026-05-06 15:01 | 47.32077 | 11.76062 | 8638 ft | 179 kts | 257° |
| 2026-05-06 15:02 | 47.31836 | 11.74251 | 8354 ft | 180 kts | 256° |
| 2026-05-06 15:02 | 47.31592 | 11.72511 | 8092 ft | 169 kts | 256° |
| 2026-05-06 15:02 | 47.31352 | 11.70865 | 7791 ft | 158 kts | 255° |
| 2026-05-06 15:02 | 47.31124 | 11.69342 | 7506 ft | 148 kts | 254° |
| 2026-05-06 15:03 | 47.30909 | 11.67920 | 7244 ft | 137 kts | 254° |
| 2026-05-06 15:03 | 47.30705 | 11.66586 | 7015 ft | 133 kts | 254° |
| 2026-05-06 15:03 | 47.30501 | 11.65267 | 6811 ft | 133 kts | 254° |
| 2026-05-06 15:03 | 47.30296 | 11.63938 | 6606 ft | 133 kts | 254° |
| 2026-05-06 15:04 | 47.30092 | 11.62604 | 6389 ft | 133 kts | 255° |
| 2026-05-06 15:04 | 47.29891 | 11.61281 | 6174 ft | 133 kts | 254° |
| 2026-05-06 15:04 | 47.29689 | 11.59954 | 5954 ft | 133 kts | 255° |
| 2026-05-06 15:04 | 47.29490 | 11.58628 | 5735 ft | 133 kts | 255° |
| 2026-05-06 15:05 | 47.29293 | 11.57310 | 5512 ft | 132 kts | 254° |
| 2026-05-06 15:05 | 47.29096 | 11.55987 | 5285 ft | 132 kts | 254° |
| 2026-05-06 15:05 | 47.28901 | 11.54680 | 5061 ft | 132 kts | 255° |
| 2026-05-06 15:05 | 47.28705 | 11.53363 | 4840 ft | 132 kts | 255° |
| 2026-05-06 15:06 | 47.28511 | 11.52046 | 4620 ft | 131 kts | 253° |
| 2026-05-06 15:06 | 47.28307 | 11.50735 | 4395 ft | 131 kts | 248° |
| 2026-05-06 15:06 | 47.27883 | 11.49585 | 4176 ft | 127 kts | 232° |
| 2026-05-06 15:06 | 47.27373 | 11.48520 | 3965 ft | 127 kts | 231° |
| 2026-05-06 15:07 | 47.26862 | 11.47474 | 3798 ft | 126 kts | 229° |
| 2026-05-06 15:07 | 47.26347 | 11.46430 | 3791 ft | 127 kts | 230° |
| 2026-05-06 15:07 | 47.25824 | 11.45366 | 3789 ft | 127 kts | 230° |
| 2026-05-06 15:07 | 47.25313 | 11.44326 | 3784 ft | 127 kts | 230° |
| 2026-05-06 15:08 | 47.24800 | 11.43285 | 3785 ft | 126 kts | 230° |
| 2026-05-06 15:08 | 47.24284 | 11.42236 | 3791 ft | 127 kts | 230° |
| 2026-05-06 15:08 | 47.23763 | 11.41179 | 3794 ft | 128 kts | 230° |
| 2026-05-06 15:08 | 47.23240 | 11.40120 | 3793 ft | 128 kts | 231° |
| 2026-05-06 15:09 | 47.22718 | 11.39039 | 3796 ft | 129 kts | 237° |
| 2026-05-06 15:09 | 47.22479 | 11.37747 | 3797 ft | 134 kts | 261° |
| 2026-05-06 15:09 | 47.22435 | 11.36380 | 3792 ft | 135 kts | 270° |
| 2026-05-06 15:09 | 47.22533 | 11.34999 | 3788 ft | 136 kts | 275° |
| 2026-05-06 15:10 | 47.22662 | 11.33613 | 3783 ft | 137 kts | 273° |
| 2026-05-06 15:10 | 47.22786 | 11.32215 | 3789 ft | 136 kts | 270° |
| 2026-05-06 15:10 | 47.22794 | 11.30838 | 3796 ft | 135 kts | 264° |
| 2026-05-06 15:10 | 47.22766 | 11.29460 | 3793 ft | 134 kts | 265° |
| 2026-05-06 15:11 | 47.22736 | 11.28090 | 3787 ft | 133 kts | 264° |
| 2026-05-06 15:11 | 47.22706 | 11.26730 | 3789 ft | 134 kts | 264° |
| 2026-05-06 15:11 | 47.22887 | 11.25380 | 3772 ft | 137 kts | 297° |
| 2026-05-06 15:11 | 47.23515 | 11.24335 | 3834 ft | 139 kts | 331° |
| 2026-05-06 15:12 | 47.24451 | 11.24205 | 3801 ft | 137 kts | 24° |
| 2026-05-06 15:12 | 47.25095 | 11.25123 | 3539 ft | 134 kts | 74° |
| 2026-05-06 15:12 | 47.25222 | 11.26448 | 3170 ft | 127 kts | 88° |
| 2026-05-06 15:12 | 47.25351 | 11.27719 | 2873 ft | 124 kts | 88° |
| 2026-05-06 15:13 | 47.25464 | 11.28968 | 2652 ft | 122 kts | 87° |
| 2026-05-06 15:13 | 47.25588 | 11.30199 | 2494 ft | 123 kts | 84° |
| 2026-05-06 15:13 | 47.25708 | 11.31434 | 2288 ft | 122 kts | 86° |
| 2026-05-06 15:13 | 47.25839 | 11.32658 | 2061 ft | 121 kts | 85° |
| 2026-05-06 15:14 | 47.25968 | 11.33875 | 1933 ft | 114 kts | 85° |
| 2026-05-06 15:14 | 47.26049 | 11.34659 | 1919 ft | 35 kts | 81° |
| 2026-05-06 15:14 | 47.26082 | 11.34971 | 1919 ft | 26 kts | 81° |
| 2026-05-06 15:14 | 47.26103 | 11.35177 | 1916 ft | 11 kts | 80° |
| 2026-05-06 15:15 | 47.26070 | 11.35260 | 1916 ft | 11 kts | 172° |
| 2026-05-06 15:15 | 47.25987 | 11.35279 | 1916 ft | 12 kts | 169° |
| 2026-05-06 15:15 | 47.25906 | 11.35272 | 1916 ft | 12 kts | 244° |
| 2026-05-06 15:15 | 47.25862 | 11.35176 | 1916 ft | 12 kts | 182° |
| 2026-05-06 15:16 | 47.25840 | 11.35179 | 1916 ft | 0 kts | 172° |